createdAt,value
2022-09-18T00:01:29.631Z,9.40
2022-09-18T00:03:57.660Z,9.40
2022-09-18T00:06:27.118Z,9.40
2022-09-18T00:08:54.897Z,9.30
2022-09-18T00:11:22.917Z,9.40
2022-09-18T00:13:50.248Z,9.30
2022-09-18T00:16:17.736Z,9.30
2022-09-18T00:18:44.872Z,9.20
2022-09-18T00:21:13.521Z,9.20
2022-09-18T00:23:41.100Z,9.20
2022-09-18T00:26:09.211Z,9.10
2022-09-18T00:28:36.510Z,9.10
2022-09-18T00:31:04.853Z,9.10
2022-09-18T00:33:31.719Z,9.10
2022-09-18T00:36:02.519Z,9.10
2022-09-18T00:38:31.890Z,9.10
2022-09-18T00:41:02.190Z,9.10
2022-09-18T00:43:30.675Z,9.10
2022-09-18T00:45:59.969Z,9.10
2022-09-18T00:48:30.722Z,9.10
2022-09-18T00:50:57.562Z,9.10
2022-09-18T00:53:24.465Z,9.10
2022-09-18T00:55:51.324Z,9.10
2022-09-18T00:58:18.388Z,9.10
2022-09-18T01:00:45.458Z,9.10
2022-09-18T01:03:12.689Z,9.20
2022-09-18T01:05:51.900Z,9.20
2022-09-18T01:08:18.625Z,9.20
2022-09-18T01:11:00.823Z,9.30
2022-09-18T01:13:54.147Z,9.30
2022-09-18T01:16:24.158Z,9.30
2022-09-18T01:19:10.306Z,9.30
2022-09-18T01:21:47.630Z,9.40
2022-09-18T01:24:33.163Z,9.40
2022-09-18T01:27:02.634Z,9.40
2022-09-18T01:29:32.641Z,9.40
2022-09-18T01:32:04.622Z,9.40
2022-09-18T01:34:35.821Z,9.30
2022-09-18T01:37:18.370Z,9.30
2022-09-18T01:40:05.441Z,9.40
2022-09-18T01:42:33.140Z,9.30
2022-09-18T01:45:02.305Z,9.40
2022-09-18T01:47:32.661Z,9.40
2022-09-18T01:50:00.814Z,9.30
2022-09-18T01:52:36.872Z,9.30
2022-09-18T01:55:06.404Z,9.30
2022-09-18T01:57:41.566Z,9.40
2022-09-18T02:00:10.268Z,9.40
2022-09-18T02:02:49.051Z,9.40
2022-09-18T02:05:18.759Z,9.40
2022-09-18T02:07:57.665Z,9.50
2022-09-18T02:10:25.848Z,9.50
2022-09-18T02:12:54.128Z,9.50
2022-09-18T02:15:23.124Z,9.50
2022-09-18T02:17:53.237Z,9.50
2022-09-18T02:20:22.082Z,9.50
2022-09-18T02:22:51.458Z,9.50
2022-09-18T02:25:19.700Z,9.50
2022-09-18T02:27:47.646Z,9.50
2022-09-18T02:30:14.735Z,9.50
2022-09-18T02:32:41.873Z,9.50
2022-09-18T02:35:10.140Z,9.60
2022-09-18T02:37:57.960Z,9.50
2022-09-18T02:40:35.015Z,9.50
2022-09-18T02:43:08.630Z,9.50
2022-09-18T02:46:01.803Z,9.50
2022-09-18T02:48:50.521Z,9.50
2022-09-18T02:51:23.080Z,9.50
2022-09-18T02:53:58.763Z,9.50
2022-09-18T02:56:35.822Z,9.60
2022-09-18T02:59:05.219Z,9.60
2022-09-18T03:01:32.601Z,9.60
2022-09-18T03:04:05.977Z,9.60
2022-09-18T03:06:32.882Z,9.60
2022-09-18T03:09:00.081Z,9.60
2022-09-18T03:11:27.061Z,9.60
2022-09-18T03:13:53.844Z,9.60
2022-09-18T03:16:20.707Z,9.60
2022-09-18T03:18:47.744Z,9.60
2022-09-18T03:21:14.633Z,9.60
2022-09-18T03:23:45.433Z,9.60
2022-09-18T03:26:12.556Z,9.60
2022-09-18T03:28:39.465Z,9.50
2022-09-18T03:31:06.354Z,9.50
2022-09-18T03:33:33.197Z,9.50
2022-09-18T03:36:00.001Z,9.50
2022-09-18T03:38:26.979Z,9.50
2022-09-18T03:40:53.854Z,9.40
2022-09-18T03:43:20.763Z,9.50
2022-09-18T03:45:47.575Z,9.40
2022-09-18T03:48:14.316Z,9.40
2022-09-18T03:50:41.119Z,9.40
2022-09-18T03:53:10.671Z,9.40
2022-09-18T03:55:37.950Z,9.40
2022-09-18T03:58:04.769Z,9.40
2022-09-18T04:00:31.662Z,9.40
2022-09-18T04:02:58.675Z,9.50
2022-09-18T04:05:25.456Z,9.40
2022-09-18T04:07:52.472Z,9.40
2022-09-18T04:10:20.647Z,9.50
2022-09-18T04:12:47.982Z,9.40
2022-09-18T04:15:15.132Z,9.40
2022-09-18T04:17:41.911Z,9.40
2022-09-18T04:20:09.432Z,9.40
2022-09-18T04:22:36.439Z,9.40
2022-09-18T04:25:03.952Z,9.40
2022-09-18T04:27:30.906Z,9.40
2022-09-18T04:29:57.722Z,9.30
2022-09-18T04:32:24.606Z,9.30
2022-09-18T04:34:51.546Z,9.30
2022-09-18T04:37:18.289Z,9.20
2022-09-18T04:39:46.926Z,9.30
2022-09-18T04:42:13.921Z,9.30
2022-09-18T04:44:40.667Z,9.30
2022-09-18T04:47:07.668Z,9.30
2022-09-18T04:49:34.425Z,9.20
2022-09-18T04:52:01.307Z,9.20
2022-09-18T04:54:28.058Z,9.30
2022-09-18T04:56:54.903Z,9.20
2022-09-18T04:59:21.790Z,9.30
2022-09-18T05:01:48.606Z,9.30
2022-09-18T05:04:16.437Z,9.30
2022-09-18T05:06:43.490Z,9.30
2022-09-18T05:09:10.338Z,9.30
2022-09-18T05:11:37.189Z,9.30
2022-09-18T05:14:03.990Z,9.30
2022-09-18T05:16:30.931Z,9.30
2022-09-18T05:18:57.845Z,9.30
2022-09-18T05:21:25.219Z,9.40
2022-09-18T05:23:52.272Z,9.40
2022-09-18T05:26:19.028Z,9.40
2022-09-18T05:28:48.792Z,9.40
2022-09-18T05:31:15.815Z,9.30
2022-09-18T05:33:42.720Z,9.40
2022-09-18T05:36:10.321Z,9.40
2022-09-18T05:38:37.105Z,9.30
2022-09-18T05:41:04.063Z,9.40
2022-09-18T05:43:31.167Z,9.50
2022-09-18T05:46:00.193Z,9.50
2022-09-18T05:48:26.959Z,9.60
2022-09-18T05:50:53.777Z,9.60
2022-09-18T05:53:21.790Z,9.60
2022-09-18T05:55:48.833Z,9.70
2022-09-18T05:58:17.186Z,9.80
2022-09-18T06:00:47.399Z,9.80
2022-09-18T06:03:15.445Z,9.80
2022-09-18T06:05:42.834Z,9.90
2022-09-18T06:08:10.616Z,10.00
2022-09-18T06:10:39.422Z,10.10
2022-09-18T06:13:07.186Z,10.10
2022-09-18T06:15:34.505Z,10.10
2022-09-18T06:18:01.451Z,10.10
2022-09-18T06:20:28.340Z,10.10
2022-09-18T06:22:58.591Z,10.20
2022-09-18T06:25:26.110Z,10.30
2022-09-18T06:27:58.647Z,10.30
2022-09-18T06:30:29.157Z,10.30
2022-09-18T06:32:57.165Z,10.30
2022-09-18T06:35:23.936Z,10.30
2022-09-18T06:37:50.791Z,10.30
2022-09-18T06:40:17.619Z,10.30
2022-09-18T06:42:46.119Z,10.40
2022-09-18T06:45:13.031Z,10.40
2022-09-18T06:47:39.952Z,10.50
2022-09-18T06:50:08.180Z,10.50
2022-09-18T06:52:34.998Z,10.60
2022-09-18T06:55:02.087Z,10.80
2022-09-18T06:57:28.986Z,10.80
2022-09-18T06:59:55.783Z,11.00
2022-09-18T07:02:22.663Z,11.10
2022-09-18T07:04:49.605Z,11.10
2022-09-18T07:07:16.411Z,11.20
2022-09-18T07:09:43.298Z,11.30
2022-09-18T07:12:10.129Z,11.30
2022-09-18T07:14:36.942Z,11.40
2022-09-18T07:17:03.849Z,11.50
2022-09-18T07:19:30.649Z,11.50
2022-09-18T07:21:57.548Z,11.50
2022-09-18T07:24:24.320Z,11.60
2022-09-18T07:26:51.097Z,11.70
2022-09-18T07:29:18.094Z,11.70
2022-09-18T07:31:45.162Z,11.80
2022-09-18T07:34:12.287Z,11.90
2022-09-18T07:36:39.237Z,11.80
2022-09-18T07:39:06.026Z,11.90
2022-09-18T07:41:32.908Z,12.00
2022-09-18T07:43:59.671Z,12.00
2022-09-18T07:46:26.510Z,12.10
2022-09-18T07:48:53.369Z,12.00
2022-09-18T07:51:23.053Z,12.00
2022-09-18T07:53:52.437Z,12.00
2022-09-18T07:56:19.777Z,11.90
2022-09-18T07:58:46.568Z,12.10
2022-09-18T08:01:13.462Z,12.10
2022-09-18T08:03:41.606Z,12.20
2022-09-18T08:06:08.598Z,12.20
2022-09-18T08:08:37.366Z,12.10
2022-09-18T08:11:04.369Z,12.00
2022-09-18T08:13:32.450Z,12.10
2022-09-18T08:15:59.421Z,12.10
2022-09-18T08:18:26.410Z,12.10
2022-09-18T08:20:55.525Z,12.20
2022-09-18T08:23:22.338Z,12.20
2022-09-18T08:25:49.263Z,12.30
2022-09-18T08:28:16.222Z,12.30
2022-09-18T08:30:43.527Z,12.30
2022-09-18T08:33:10.703Z,12.40
2022-09-18T08:35:37.849Z,12.40
2022-09-18T08:38:04.787Z,12.40
2022-09-18T08:40:43.799Z,12.50
2022-09-18T08:43:22.679Z,12.40
2022-09-18T08:45:49.489Z,12.50
2022-09-18T08:48:19.154Z,12.60
2022-09-18T08:50:51.218Z,12.70
2022-09-18T08:53:23.711Z,12.70
2022-09-18T08:55:52.000Z,12.70
2022-09-18T08:58:34.827Z,12.80
2022-09-18T09:01:06.820Z,12.80
2022-09-18T09:03:42.842Z,12.90
2022-09-18T09:06:26.446Z,13.00
2022-09-18T09:09:08.602Z,12.90
2022-09-18T09:11:53.518Z,13.00
2022-09-18T09:14:56.149Z,13.00
2022-09-18T09:17:37.982Z,13.00
2022-09-18T09:20:23.428Z,13.10
2022-09-18T09:22:54.411Z,13.10
2022-09-18T09:25:31.067Z,13.20
2022-09-18T09:28:18.274Z,13.20
2022-09-18T09:30:46.661Z,13.10
2022-09-18T09:33:16.511Z,13.20
2022-09-18T09:35:45.592Z,13.20
2022-09-18T09:38:31.298Z,13.20
2022-09-18T09:41:00.169Z,13.20
2022-09-18T09:43:29.516Z,13.30
2022-09-18T09:45:59.326Z,13.30
2022-09-18T09:48:34.228Z,13.40
2022-09-18T09:51:10.149Z,13.40
2022-09-18T09:53:37.080Z,13.50
2022-09-18T09:56:13.045Z,13.60
2022-09-18T09:58:55.814Z,13.60
2022-09-18T10:01:27.976Z,13.60
2022-09-18T10:04:15.582Z,13.80
2022-09-18T10:07:01.163Z,13.80
2022-09-18T10:09:40.470Z,13.90
2022-09-18T10:12:26.179Z,13.90
2022-09-18T10:14:55.306Z,14.00
2022-09-18T10:17:23.560Z,14.00
2022-09-18T10:19:50.485Z,14.00
2022-09-18T10:22:19.034Z,14.00
2022-09-18T10:25:03.824Z,14.20
2022-09-18T10:27:31.346Z,14.20
2022-09-18T10:29:59.159Z,14.30
2022-09-18T10:32:32.862Z,14.40
2022-09-18T10:34:59.739Z,14.40
2022-09-18T10:37:29.821Z,14.50
2022-09-18T10:40:01.505Z,14.60
2022-09-18T10:42:37.364Z,14.50
2022-09-18T10:45:06.110Z,14.70
2022-09-18T10:47:34.123Z,14.60
2022-09-18T10:50:07.176Z,14.70
2022-09-18T10:52:40.233Z,14.90
2022-09-18T10:55:07.423Z,14.90
2022-09-18T10:57:35.415Z,14.80
2022-09-18T11:00:05.558Z,14.90
2022-09-18T11:02:38.451Z,15.00
2022-09-18T11:05:05.557Z,15.00
2022-09-18T11:07:32.372Z,15.00
2022-09-18T11:10:06.696Z,15.00
2022-09-18T11:12:35.162Z,15.00
2022-09-18T11:15:07.741Z,15.00
2022-09-18T11:17:40.090Z,15.10
2022-09-18T11:20:07.843Z,15.00
2022-09-18T11:22:42.606Z,15.10
2022-09-18T11:25:23.545Z,15.10
2022-09-18T11:27:51.702Z,15.20
2022-09-18T11:30:24.650Z,15.20
2022-09-18T11:32:54.634Z,15.20
2022-09-18T11:35:22.729Z,15.30
2022-09-18T11:37:54.501Z,15.40
2022-09-18T11:40:23.108Z,15.50
2022-09-18T11:42:52.342Z,15.40
2022-09-18T11:45:43.955Z,15.40
2022-09-18T11:48:13.744Z,15.50
2022-09-18T11:50:40.761Z,15.50
2022-09-18T11:53:21.951Z,15.60
2022-09-18T11:55:52.856Z,15.60
2022-09-18T11:58:28.788Z,15.60
2022-09-18T12:01:05.001Z,15.50
2022-09-18T12:03:35.341Z,15.50
2022-09-18T12:06:06.401Z,15.60
2022-09-18T12:08:40.668Z,15.70
2022-09-18T12:11:30.684Z,15.70
2022-09-18T12:14:18.923Z,15.90
2022-09-18T12:17:04.504Z,16.00
2022-09-18T12:19:34.989Z,16.10
2022-09-18T12:22:08.431Z,16.20
2022-09-18T12:24:35.379Z,16.30
2022-09-18T12:27:10.294Z,16.20
2022-09-18T12:29:40.095Z,16.10
2022-09-18T12:32:18.912Z,16.10
2022-09-18T12:34:51.259Z,15.90
2022-09-18T12:37:31.557Z,15.90
2022-09-18T12:39:59.165Z,15.90
2022-09-18T12:42:25.965Z,15.80
2022-09-18T12:45:11.555Z,15.70
2022-09-18T12:47:41.367Z,15.70
2022-09-18T12:50:28.383Z,15.70
2022-09-18T12:53:10.709Z,15.70
2022-09-18T12:55:43.564Z,15.70
2022-09-18T12:58:13.402Z,15.60
2022-09-18T13:00:40.552Z,15.60
2022-09-18T13:03:19.590Z,15.60
2022-09-18T13:05:50.101Z,15.60
2022-09-18T13:08:22.539Z,15.60
2022-09-18T13:10:51.493Z,15.60
2022-09-18T13:13:24.672Z,15.60
2022-09-18T13:15:56.391Z,15.60
2022-09-18T13:18:37.092Z,15.70
2022-09-18T13:21:05.716Z,15.80
2022-09-18T13:23:35.203Z,15.90
2022-09-18T13:26:04.461Z,15.90
2022-09-18T13:28:31.318Z,15.90
2022-09-18T13:31:24.816Z,15.80
2022-09-18T13:33:54.476Z,15.70
2022-09-18T13:36:25.242Z,15.50
2022-09-18T13:38:52.580Z,15.50
2022-09-18T13:41:20.117Z,15.50
2022-09-18T13:43:55.504Z,15.40
2022-09-18T13:46:30.353Z,15.50
2022-09-18T13:48:58.667Z,15.60
2022-09-18T13:51:31.145Z,15.60
2022-09-18T13:54:13.514Z,15.70
2022-09-18T13:56:58.755Z,15.60
2022-09-18T13:59:43.786Z,15.50
2022-09-18T14:02:28.091Z,15.60
2022-09-18T14:05:05.684Z,15.60
2022-09-18T14:07:32.698Z,15.60
2022-09-18T14:10:03.894Z,15.60
2022-09-18T14:12:35.189Z,15.60
2022-09-18T14:15:03.642Z,15.60
2022-09-18T14:17:34.949Z,15.50
2022-09-18T14:20:08.068Z,15.40
2022-09-18T14:22:38.209Z,15.40
2022-09-18T14:25:07.272Z,15.40
2022-09-18T14:27:38.799Z,15.40
2022-09-18T14:30:25.135Z,15.40
2022-09-18T14:32:54.735Z,15.40
2022-09-18T14:35:27.582Z,15.40
2022-09-18T14:37:54.420Z,15.40
2022-09-18T14:40:22.675Z,15.50
2022-09-18T14:42:49.998Z,15.60
2022-09-18T14:45:27.506Z,15.60
2022-09-18T14:47:55.379Z,15.70
2022-09-18T14:50:23.713Z,15.70
2022-09-18T14:52:50.604Z,15.70
2022-09-18T14:55:22.862Z,15.70
2022-09-18T14:58:12.819Z,15.70
2022-09-18T15:00:40.014Z,15.70
2022-09-18T15:03:14.145Z,15.70
2022-09-18T15:05:40.989Z,15.70
2022-09-18T15:08:18.989Z,15.70
2022-09-18T15:10:47.953Z,15.70
2022-09-18T15:13:15.924Z,15.70
2022-09-18T15:15:44.244Z,15.60
2022-09-18T15:18:19.011Z,15.60
2022-09-18T15:20:50.740Z,15.60
2022-09-18T15:23:28.387Z,15.50
2022-09-18T15:25:56.343Z,15.40
2022-09-18T15:28:25.521Z,15.40
2022-09-18T15:30:58.205Z,15.30
2022-09-18T15:33:27.434Z,15.30
2022-09-18T15:35:55.611Z,15.30
2022-09-18T15:38:26.374Z,15.20
2022-09-18T15:40:53.474Z,15.20
2022-09-18T15:43:29.686Z,15.20
2022-09-18T15:46:07.073Z,15.20
2022-09-18T15:48:42.003Z,15.20
2022-09-18T15:51:10.385Z,15.20
2022-09-18T15:53:38.592Z,15.20
2022-09-18T15:56:07.026Z,15.20
2022-09-18T15:58:37.206Z,15.20
2022-09-18T16:01:05.365Z,15.20
2022-09-18T16:03:32.825Z,15.10
2022-09-18T16:06:03.722Z,15.00
2022-09-18T16:08:32.600Z,15.00
2022-09-18T16:11:00.058Z,14.90
2022-09-18T16:13:26.818Z,14.90
2022-09-18T16:16:09.106Z,14.90
2022-09-18T16:18:48.406Z,14.80
2022-09-18T16:21:15.303Z,14.80
2022-09-18T16:23:50.990Z,14.70
2022-09-18T16:26:24.552Z,14.70
2022-09-18T16:28:55.813Z,14.70
2022-09-18T16:31:24.116Z,14.60
2022-09-18T16:33:57.019Z,14.50
2022-09-18T16:36:43.995Z,14.50
2022-09-18T16:39:11.791Z,14.40
2022-09-18T16:41:38.741Z,14.50
2022-09-18T16:44:06.578Z,14.40
2022-09-18T16:46:44.496Z,14.40
2022-09-18T16:49:12.170Z,14.40
2022-09-18T16:51:39.080Z,14.40
2022-09-18T16:54:06.025Z,14.30
2022-09-18T16:56:35.017Z,14.30
2022-09-18T16:59:03.272Z,14.30
2022-09-18T17:01:43.589Z,14.30
2022-09-18T17:04:17.282Z,14.20
2022-09-18T17:06:44.097Z,14.20
2022-09-18T17:09:10.870Z,14.20
2022-09-18T17:11:37.742Z,14.10
2022-09-18T17:14:06.488Z,14.10
2022-09-18T17:16:44.574Z,14.10
2022-09-18T17:19:12.162Z,14.00
2022-09-18T17:21:39.342Z,14.00
2022-09-18T17:24:06.462Z,14.00
2022-09-18T17:26:34.981Z,14.00
2022-09-18T17:29:01.967Z,13.90
2022-09-18T17:31:28.867Z,14.00
2022-09-18T17:33:56.074Z,13.90
2022-09-18T17:36:23.205Z,13.90
2022-09-18T17:38:50.228Z,13.90
2022-09-18T17:41:18.381Z,13.90
2022-09-18T17:43:45.617Z,13.90
2022-09-18T17:46:13.455Z,13.80
2022-09-18T17:48:40.205Z,13.80
2022-09-18T17:51:12.900Z,13.80
2022-09-18T17:53:40.790Z,13.80
2022-09-18T17:56:11.424Z,13.70
2022-09-18T17:58:41.085Z,13.70
2022-09-18T18:01:12.097Z,13.60
2022-09-18T18:03:39.507Z,13.60
2022-09-18T18:06:06.663Z,13.50
2022-09-18T18:08:34.172Z,13.50
2022-09-18T18:11:05.379Z,13.40
2022-09-18T18:13:32.363Z,13.40
2022-09-18T18:16:10.801Z,13.40
2022-09-18T18:18:38.148Z,13.40
2022-09-18T18:21:05.587Z,13.40
2022-09-18T18:23:32.768Z,13.30
2022-09-18T18:26:06.880Z,13.30
2022-09-18T18:28:34.707Z,13.30
2022-09-18T18:31:06.288Z,13.20
2022-09-18T18:33:34.607Z,13.20
2022-09-18T18:36:12.079Z,13.20
2022-09-18T18:38:39.270Z,13.20
2022-09-18T18:41:07.120Z,13.20
2022-09-18T18:43:35.042Z,13.10
2022-09-18T18:46:02.502Z,13.20
2022-09-18T18:48:34.024Z,13.10
2022-09-18T18:51:04.957Z,13.10
2022-09-18T18:53:32.117Z,13.10
2022-09-18T18:56:06.218Z,13.10
2022-09-18T18:58:33.461Z,13.10
2022-09-18T19:01:07.338Z,13.00
2022-09-18T19:03:38.131Z,13.00
2022-09-18T19:06:06.901Z,13.00
2022-09-18T19:08:35.755Z,12.90
2022-09-18T19:11:02.690Z,12.90
2022-09-18T19:13:29.567Z,12.90
2022-09-18T19:15:56.492Z,12.90
2022-09-18T19:18:23.736Z,12.80
2022-09-18T19:20:53.620Z,12.80
2022-09-18T19:23:21.021Z,12.80
2022-09-18T19:25:47.918Z,12.80
2022-09-18T19:28:16.412Z,12.80
2022-09-18T19:30:43.789Z,12.90
2022-09-18T19:33:14.808Z,12.90
2022-09-18T19:35:41.789Z,12.90
2022-09-18T19:38:09.186Z,12.90
2022-09-18T19:40:38.186Z,12.80
2022-09-18T19:43:14.688Z,12.80
2022-09-18T19:45:44.626Z,12.80
2022-09-18T19:48:19.045Z,12.70
2022-09-18T19:50:47.371Z,12.70
2022-09-18T19:53:15.374Z,12.70
2022-09-18T19:55:46.864Z,12.70
2022-09-18T19:58:15.394Z,12.60
2022-09-18T20:00:43.470Z,12.60
2022-09-18T20:03:10.538Z,12.80
2022-09-18T20:05:38.288Z,12.70
2022-09-18T20:08:06.598Z,12.70
2022-09-18T20:10:34.518Z,12.80
2022-09-18T20:13:01.363Z,12.70
2022-09-18T20:15:28.491Z,12.70
2022-09-18T20:17:58.496Z,12.70
2022-09-18T20:20:25.725Z,12.60
2022-09-18T20:22:53.156Z,12.60
2022-09-18T20:25:20.025Z,12.60
2022-09-18T20:27:46.922Z,12.70
2022-09-18T20:30:14.260Z,12.60
2022-09-18T20:32:41.055Z,12.60
2022-09-18T20:35:08.018Z,12.50
2022-09-18T20:37:34.826Z,12.50
2022-09-18T20:40:02.514Z,12.50
2022-09-18T20:42:31.782Z,12.40
2022-09-18T20:45:02.339Z,12.40
2022-09-18T20:47:38.364Z,12.50
2022-09-18T20:50:09.270Z,12.50
2022-09-18T20:52:36.847Z,12.50
2022-09-18T20:55:09.025Z,12.50
2022-09-18T20:57:38.917Z,12.50
2022-09-18T21:00:07.118Z,12.40
2022-09-18T21:02:36.686Z,12.50
2022-09-18T21:05:13.910Z,12.50
2022-09-18T21:07:41.013Z,12.40
2022-09-18T21:10:08.113Z,12.50
2022-09-18T21:12:39.007Z,12.50
2022-09-18T21:15:06.836Z,12.40
2022-09-18T21:17:34.012Z,12.40
2022-09-18T21:20:02.298Z,12.40
2022-09-18T21:22:32.112Z,12.50
2022-09-18T21:24:59.221Z,12.40
2022-09-18T21:27:27.085Z,12.50
2022-09-18T21:29:56.472Z,12.50
2022-09-18T21:32:23.540Z,12.50
2022-09-18T21:34:52.989Z,12.40
2022-09-18T21:37:20.107Z,12.40
2022-09-18T21:39:47.199Z,12.40
2022-09-18T21:42:16.990Z,12.40
2022-09-18T21:44:44.915Z,12.40
2022-09-18T21:47:12.675Z,12.30
2022-09-18T21:49:39.678Z,12.30
2022-09-18T21:52:07.232Z,12.20
2022-09-18T21:54:34.389Z,12.10
2022-09-18T21:57:01.617Z,12.10
2022-09-18T21:59:30.570Z,12.20
2022-09-18T22:01:57.915Z,12.20
2022-09-18T22:04:26.371Z,12.20
2022-09-18T22:06:55.495Z,12.20
2022-09-18T22:09:27.093Z,12.20
2022-09-18T22:11:54.620Z,12.20
2022-09-18T22:14:23.194Z,12.10
2022-09-18T22:16:50.486Z,12.10
2022-09-18T22:19:17.566Z,12.20
2022-09-18T22:21:45.782Z,12.10
2022-09-18T22:24:15.243Z,12.10
2022-09-18T22:26:43.341Z,12.20
2022-09-18T22:29:22.967Z,12.20
2022-09-18T22:31:50.376Z,12.20
2022-09-18T22:34:18.606Z,12.30
2022-09-18T22:36:46.337Z,12.20
2022-09-18T22:39:13.882Z,12.20
2022-09-18T22:41:41.241Z,12.20
2022-09-18T22:44:08.436Z,12.20
2022-09-18T22:46:39.270Z,12.20
2022-09-18T22:49:07.339Z,12.10
2022-09-18T22:51:34.643Z,12.10
2022-09-18T22:54:07.876Z,12.10
2022-09-18T22:56:55.323Z,12.10
2022-09-18T22:59:23.549Z,12.10
2022-09-18T23:02:08.928Z,12.20
2022-09-18T23:04:36.786Z,12.20
2022-09-18T23:07:04.054Z,12.10
2022-09-18T23:09:31.271Z,12.10
2022-09-18T23:11:58.766Z,12.10
2022-09-18T23:14:27.779Z,12.10
2022-09-18T23:16:55.034Z,12.10
2022-09-18T23:19:23.402Z,12.00
2022-09-18T23:21:50.580Z,12.10
2022-09-18T23:24:18.287Z,12.10
2022-09-18T23:26:46.212Z,12.10
2022-09-18T23:29:14.661Z,12.20
2022-09-18T23:31:42.780Z,12.20
2022-09-18T23:34:14.398Z,12.20
2022-09-18T23:36:43.230Z,12.20
2022-09-18T23:39:14.390Z,12.30
2022-09-18T23:41:41.612Z,12.30
2022-09-18T23:44:09.534Z,12.30
2022-09-18T23:46:36.938Z,12.20
2022-09-18T23:49:04.543Z,12.20
2022-09-18T23:51:32.653Z,12.20
2022-09-18T23:54:00.761Z,12.20
2022-09-18T23:56:29.187Z,12.20
2022-09-18T23:59:00.236Z,12.20
